Time;durP1;ratioP1;P1;durP2;ratioP2;P2;SDS_P1;SDS_P2;PMS_P1;PMS_P2;Temp;Humidity;BMP_temperature;BMP_pressure;BME280_temperature;BME280_humidity;BME280_pressure;Samples;Min_cycle;Max_cycle;Signal;HPM_P1;HPM_P2
2022/03/22 00:01:29;;;;;;;17.65;9.52;;;5.80;99.90;;;;;;5088457;28;19916;-68
2022/03/22 00:03:54;;;;;;;;;;;5.80;99.90;;;;;;5100154;28;20036;-68
2022/03/22 00:06:20;;;;;;;34.95;13.10;;;5.80;99.90;;;;;;5073808;28;19920;-68
2022/03/22 00:08:46;;;;;;;;;;;5.80;99.40;;;;;;5068665;28;20040;-67
2022/03/22 00:11:13;;;;;;;27.85;13.63;;;5.80;99.00;;;;;;5069667;28;19989;-68
2022/03/22 00:13:39;;;;;;;24.15;12.70;;;5.90;98.70;;;;;;5067539;28;20043;-68
2022/03/22 00:16:08;;;;;;;23.00;11.95;;;5.90;98.80;;;;;;5069921;28;20609;-67
2022/03/22 00:18:35;;;;;;;26.02;12.32;;;5.80;98.90;;;;;;5055335;28;20048;-68
2022/03/22 00:21:01;;;;;;;25.58;12.93;;;5.90;98.90;;;;;;5054247;28;20452;-68
2022/03/22 00:23:26;;;;;;;;;;;5.90;98.80;;;;;;5056896;28;20044;-67
2022/03/22 00:25:52;;;;;;;37.38;13.23;;;5.90;98.80;;;;;;5054409;28;19983;-67
2022/03/22 00:28:18;;;;;;;;;;;5.80;98.60;;;;;;5057039;28;20600;-68
2022/03/22 00:30:44;;;;;;;21.63;11.60;;;5.90;98.20;;;;;;5051246;28;19944;-68
2022/03/22 00:33:10;;;;;;;;;;;5.90;98.10;;;;;;5045127;28;20303;-68
2022/03/22 00:35:37;;;;;;;21.70;12.52;;;5.90;98.20;;;;;;5065727;28;19922;-68
2022/03/22 00:38:11;;;;;;;25.42;13.18;;;5.80;98.50;;;;;;5084170;28;20036;-68
2022/03/22 00:40:38;;;;;;;27.20;13.77;;;5.70;99.90;;;;;;5071413;28;20086;-68
2022/03/22 00:43:04;;;;;;;23.23;12.55;;;5.50;99.90;;;;;;5064075;28;20076;-68
2022/03/22 00:45:33;;;;;;;28.52;13.70;;;5.50;99.90;;;;;;5073248;28;20629;-68
2022/03/22 00:47:59;;;;;;;22.55;12.15;;;5.40;99.90;;;;;;5085541;28;20058;-68
2022/03/22 00:50:36;;;;;;;20.98;12.00;;;5.40;99.90;;;;;;5078778;28;20052;-68
2022/03/22 00:53:04;;;;;;;22.55;12.57;;;5.50;99.90;;;;;;5067113;28;20041;-68
2022/03/22 00:55:31;;;;;;;23.60;12.52;;;5.50;99.90;;;;;;5060627;28;20050;-68
2022/03/22 00:57:56;;;;;;;27.55;13.00;;;5.50;99.90;;;;;;5063722;28;20068;-68
2022/03/22 01:00:26;;;;;;;;;;;5.60;99.90;;;;;;5069847;28;20107;-68
2022/03/22 01:02:54;;;;;;;24.48;11.57;;;5.40;99.90;;;;;;5083363;28;19926;-68
2022/03/22 01:05:21;;;;;;;28.55;13.55;;;5.40;99.90;;;;;;5081470;28;20032;-68
2022/03/22 01:07:52;;;;;;;23.33;13.32;;;5.20;99.90;;;;;;5065377;28;20037;-67
2022/03/22 01:10:20;;;;;;;25.85;13.50;;;5.10;99.90;;;;;;5066078;28;20044;-68
2022/03/22 01:12:47;;;;;;;23.27;12.82;;;5.10;99.90;;;;;;5084989;28;20101;-68
2022/03/22 01:15:15;;;;;;;26.23;13.20;;;5.20;99.90;;;;;;5083720;28;20544;-65
2022/03/22 01:17:42;;;;;;;25.00;13.23;;;5.20;99.90;;;;;;5065188;28;20133;-68
2022/03/22 01:20:11;;;;;;;35.53;16.15;;;5.40;99.60;;;;;;5064630;28;20040;-68
2022/03/22 01:22:39;;;;;;;24.48;13.55;;;5.40;99.90;;;;;;5085593;28;20044;-67
2022/03/22 01:25:16;;;;;;;28.88;12.98;;;5.30;99.90;;;;;;5063176;28;20098;-67
2022/03/22 01:27:46;;;;;;;26.98;13.05;;;5.10;99.90;;;;;;5046885;28;20052;-68
2022/03/22 01:30:13;;;;;;;21.30;12.77;;;5.00;99.90;;;;;;5044124;28;20098;-68
2022/03/22 01:32:39;;;;;;;25.20;12.90;;;4.90;99.90;;;;;;5082351;28;20129;-68
2022/03/22 01:35:08;;;;;;;22.33;12.43;;;4.70;99.90;;;;;;5083394;28;20039;-68
2022/03/22 01:37:34;;;;;;;27.25;13.88;;;4.70;99.90;;;;;;5066178;28;20040;-68
2022/03/22 01:39:59;;;;;;;26.42;13.35;;;4.70;99.90;;;;;;5064132;28;20101;-68
2022/03/22 01:42:25;;;;;;;24.40;13.05;;;4.60;99.90;;;;;;5080549;28;20043;-68
2022/03/22 01:44:52;;;;;;;24.90;13.05;;;4.60;99.90;;;;;;5084325;28;20043;-68
2022/03/22 01:47:20;;;;;;;27.45;13.10;;;4.70;99.90;;;;;;5068902;28;20456;-68
2022/03/22 01:49:47;;;;;;;24.88;13.10;;;4.70;99.90;;;;;;5064191;28;20039;-68
2022/03/22 01:52:19;;;;;;;23.40;12.80;;;4.70;99.90;;;;;;5058374;28;20459;-68
2022/03/22 01:54:46;;;;;;;23.50;13.00;;;4.80;99.90;;;;;;5065256;28;20128;-68
2022/03/22 01:57:12;;;;;;;25.67;13.65;;;4.90;99.90;;;;;;5066751;28;20590;-68
2022/03/22 01:59:38;;;;;;;29.13;14.35;;;4.90;99.90;;;;;;5064316;28;20528;-68
2022/03/22 02:07:37;;;;;;;23.10;11.98;;;5.10;99.10;;;;;;5068600;28;20147;-68
2022/03/22 02:10:04;;;;;;;26.55;12.30;;;5.10;99.00;;;;;;5063299;28;20049;-68
2022/03/22 02:12:30;;;;;;;26.05;12.68;;;5.20;98.80;;;;;;5075141;28;20427;-68
2022/03/22 02:14:56;;;;;;;25.48;12.25;;;5.20;98.70;;;;;;5083858;28;20051;-67
2022/03/22 02:17:21;;;;;;;20.00;11.40;;;5.20;98.30;;;;;;5071847;28;20520;-67
2022/03/22 02:19:48;;;;;;;26.92;12.25;;;5.20;98.70;;;;;;5058539;28;20028;-67
2022/03/22 02:22:17;;;;;;;21.17;12.00;;;5.10;98.30;;;;;;5061614;28;20037;-67
2022/03/22 02:24:43;;;;;;;21.63;11.43;;;5.10;98.30;;;;;;5053257;28;20040;-68
2022/03/22 02:27:09;;;;;;;26.85;11.95;;;5.20;98.00;;;;;;5066604;28;20396;-67
2022/03/22 02:29:35;;;;;;;;;;;5.10;98.30;;;;;;5080487;28;20036;-68
2022/03/22 02:32:02;;;;;;;23.40;11.32;;;4.90;98.80;;;;;;5075629;28;20476;-67
2022/03/22 02:34:28;;;;;;;22.25;11.43;;;4.90;99.50;;;;;;5062906;28;20135;-68
2022/03/22 02:36:53;;;;;;;24.60;12.73;;;4.80;99.90;;;;;;5067037;28;20123;-68
2022/03/22 02:39:19;;;;;;;;;;;4.70;99.90;;;;;;5083894;28;20571;-67
2022/03/22 02:41:48;;;;;;;19.45;10.02;;;4.60;99.90;;;;;;5079494;28;19930;-67
2022/03/22 02:44:14;;;;;;;21.50;11.70;;;4.60;99.90;;;;;;5063829;28;20041;-68
2022/03/22 02:46:40;;;;;;;25.85;12.75;;;4.50;99.90;;;;;;5062168;28;20057;-68
2022/03/22 02:49:08;;;;;;;18.63;11.02;;;4.40;99.90;;;;;;5083816;28;20078;-67
2022/03/22 02:51:34;;;;;;;20.63;10.88;;;4.40;99.80;;;;;;5081523;28;20499;-68
2022/03/22 02:53:59;;;;;;;21.40;11.63;;;4.40;99.90;;;;;;5056861;28;20047;-68
2022/03/22 02:56:25;;;;;;;28.05;12.93;;;4.40;99.90;;;;;;5052410;28;20048;-68
2022/03/22 02:58:50;;;;;;;23.30;11.90;;;4.30;99.90;;;;;;5079955;28;20036;-67
2022/03/22 03:01:16;;;;;;;;;;;4.20;99.90;;;;;;5079945;28;20040;-66
2022/03/22 03:03:42;;;;;;;21.58;11.52;;;4.10;99.90;;;;;;5066915;28;20457;-67
2022/03/22 03:06:08;;;;;;;21.33;12.30;;;4.10;99.90;;;;;;5062444;28;20044;-67
2022/03/22 03:08:33;;;;;;;23.58;11.02;;;4.20;99.90;;;;;;5077064;28;20040;-68
2022/03/22 03:10:59;;;;;;;25.80;12.25;;;4.10;99.90;;;;;;5082717;28;20089;-67
2022/03/22 03:13:25;;;;;;;19.77;11.38;;;4.10;99.90;;;;;;5069104;28;20129;-68
2022/03/22 03:15:51;;;;;;;23.45;12.13;;;4.00;99.90;;;;;;5063207;28;20455;-68
2022/03/22 03:18:18;;;;;;;23.70;12.00;;;4.00;99.90;;;;;;5073664;28;20032;-67
2022/03/22 03:20:44;;;;;;;22.42;10.82;;;3.90;99.90;;;;;;5082200;28;20040;-67
2022/03/22 03:23:09;;;;;;;19.75;10.82;;;4.00;99.90;;;;;;5074239;28;20099;-68
2022/03/22 03:25:35;;;;;;;20.05;11.50;;;4.10;99.70;;;;;;5047428;28;20045;-67
2022/03/22 03:28:02;;;;;;;19.23;10.68;;;4.20;98.90;;;;;;5048096;28;20099;-68
2022/03/22 03:30:27;;;;;;;22.42;11.38;;;4.30;98.40;;;;;;5061114;28;20063;-67
2022/03/22 03:32:53;;;;;;;22.13;11.40;;;4.40;99.10;;;;;;5067427;28;20613;-67
2022/03/22 03:35:19;;;;;;;;;;;4.30;99.40;;;;;;5082735;28;20032;-68
2022/03/22 03:37:45;;;;;;;23.20;11.52;;;4.30;99.70;;;;;;5080683;28;19920;-65
2022/03/22 03:40:12;;;;;;;28.48;12.05;;;4.20;99.90;;;;;;5061812;28;20033;-68
2022/03/22 03:42:42;;;;;;;18.05;10.90;;;4.10;99.90;;;;;;5046192;28;20130;-66
2022/03/22 03:47:57;;;;;;;23.33;11.45;;;4.10;99.90;;;;;;5079287;28;20077;-68
2022/03/22 03:50:23;;;;;;;22.08;11.40;;;4.20;98.40;;;;;;5062996;28;20413;-68
2022/03/22 03:52:49;;;;;;;20.85;10.85;;;4.30;98.00;;;;;;5063342;28;20082;-68
2022/03/22 03:55:15;;;;;;;18.70;10.75;;;4.40;97.70;;;;;;5063158;28;20124;-65
2022/03/22 03:57:41;;;;;;;28.23;11.35;;;4.40;97.30;;;;;;5059076;28;20040;-66
2022/03/22 04:00:07;;;;;;;16.70;10.35;;;4.40;97.30;;;;;;5086178;28;20040;-66
2022/03/22 04:02:33;;;;;;;21.77;11.98;;;4.40;97.60;;;;;;5085200;28;20097;-66
2022/03/22 04:04:59;;;;;;;22.77;11.48;;;4.40;97.40;;;;;;5067720;28;20127;-66
2022/03/22 04:07:25;;;;;;;;;;;4.40;97.50;;;;;;5066571;28;20056;-66
2022/03/22 04:09:51;;;;;;;19.88;11.40;;;4.40;97.50;;;;;;5082674;28;19942;-66
2022/03/22 04:12:17;;;;;;;20.50;11.48;;;4.40;97.10;;;;;;5085464;28;20158;-65
2022/03/22 04:14:43;;;;;;;22.65;10.77;;;4.40;96.90;;;;;;5072151;28;20033;-65
2022/03/22 04:17:09;;;;;;;22.83;11.07;;;4.40;97.40;;;;;;5063743;28;20655;-65
2022/03/22 04:19:36;;;;;;;22.88;10.65;;;4.40;97.50;;;;;;5066945;28;20487;-65
2022/03/22 04:22:08;;;;;;;19.48;10.77;;;4.40;97.50;;;;;;5064570;28;20032;-65
2022/03/22 04:24:33;;;;;;;18.77;11.05;;;4.40;96.80;;;;;;5057216;28;20106;-65
2022/03/22 04:32:43;;;;;;;19.13;10.15;;;4.50;96.30;;;;;;5063706;28;20040;-65
2022/03/22 04:35:17;;;;;;;17.63;10.38;;;4.50;96.10;;;;;;5081151;28;20052;-65
2022/03/22 04:37:44;;;;;;;21.75;10.48;;;4.50;96.00;;;;;;5086126;28;20075;-65
2022/03/22 04:40:10;;;;;;;24.52;10.93;;;4.50;96.40;;;;;;5070195;28;20067;-64
2022/03/22 04:42:37;;;;;;;18.90;10.10;;;4.40;97.40;;;;;;5064954;28;20037;-65
2022/03/22 04:45:03;;;;;;;25.30;10.75;;;4.30;97.20;;;;;;5078922;28;20118;-65
2022/03/22 04:47:29;;;;;;;18.63;10.23;;;4.20;98.10;;;;;;5084854;28;20055;-64
2022/03/22 04:49:56;;;;;;;19.27;10.55;;;4.10;97.60;;;;;;5073825;28;20044;-65
2022/03/22 04:57:51;;;;;;;22.23;12.40;;;3.90;98.60;;;;;;5063689;28;20039;-65
2022/03/22 05:00:16;;;;;;;21.08;10.80;;;3.80;99.40;;;;;;5074929;28;20466;-65
2022/03/22 05:02:42;;;;;;;22.40;10.25;;;3.80;99.00;;;;;;5074864;28;20089;-65
2022/03/22 05:05:08;;;;;;;19.45;10.63;;;3.80;98.60;;;;;;5072216;28;20063;-65
2022/03/22 05:07:33;;;;;;;26.73;11.25;;;3.90;97.80;;;;;;5076093;28;20074;-66
2022/03/22 05:09:59;;;;;;;21.05;11.02;;;3.90;97.50;;;;;;5085501;28;20476;-66
2022/03/22 05:12:25;;;;;;;18.45;10.05;;;4.00;97.30;;;;;;5083077;28;20496;-66
2022/03/22 05:14:51;;;;;;;20.77;10.13;;;4.00;97.30;;;;;;5079298;28;20044;-66
2022/03/22 05:17:23;;;;;;;20.50;10.80;;;4.00;97.10;;;;;;5064641;28;20052;-66
2022/03/22 05:19:51;;;;;;;21.23;11.10;;;4.00;97.80;;;;;;5071292;28;20040;-66
2022/03/22 05:22:19;;;;;;;20.23;10.55;;;4.00;98.20;;;;;;5084460;28;20127;-65
2022/03/22 05:24:46;;;;;;;19.83;9.98;;;4.00;98.70;;;;;;5071997;28;20044;-65
2022/03/22 05:27:14;;;;;;;16.48;9.93;;;3.90;97.60;;;;;;5078327;28;20086;-65
2022/03/22 05:29:40;;;;;;;18.73;10.48;;;4.00;96.40;;;;;;5056787;28;20640;-66
2022/03/22 05:32:06;;;;;;;16.95;9.32;;;4.10;96.00;;;;;;5075458;28;20059;-64
2022/03/22 05:34:31;;;;;;;20.50;9.70;;;4.20;95.80;;;;;;5064460;28;20064;-66
2022/03/22 05:36:57;;;;;;;18.75;10.73;;;4.20;96.00;;;;;;5076613;28;20533;-66
2022/03/22 05:39:23;;;;;;;19.95;9.80;;;4.20;95.80;;;;;;5059430;28;20040;-66
2022/03/22 05:41:48;;;;;;;17.17;9.60;;;4.30;95.20;;;;;;5053536;28;20064;-66
2022/03/22 05:44:14;;;;;;;19.88;10.07;;;4.40;94.90;;;;;;5044558;28;20051;-62
2022/03/22 05:46:41;;;;;;;17.25;9.73;;;4.40;94.50;;;;;;5080601;28;20043;-64
2022/03/22 05:49:08;;;;;;;16.02;9.82;;;4.40;94.20;;;;;;5084315;28;20542;-65
2022/03/22 05:51:36;;;;;;;19.20;9.77;;;4.50;94.20;;;;;;5067045;28;20048;-65
2022/03/22 05:54:01;;;;;;;15.80;9.00;;;4.60;94.00;;;;;;5056681;28;20067;-65
2022/03/22 05:56:27;;;;;;;17.10;8.75;;;4.70;93.20;;;;;;5065338;28;20041;-64
2022/03/22 05:58:52;;;;;;;16.75;9.52;;;4.80;93.60;;;;;;5064589;28;20036;-69
2022/03/22 06:01:18;;;;;;;19.35;10.15;;;4.90;94.00;;;;;;5075567;28;20120;-68
2022/03/22 06:03:44;;;;;;;14.75;8.93;;;4.90;94.40;;;;;;5076785;28;20079;-64
2022/03/22 06:06:10;;;;;;;18.70;9.43;;;4.90;94.70;;;;;;5078889;28;20036;-65
2022/03/22 06:08:36;;;;;;;17.30;9.02;;;4.90;95.50;;;;;;5073815;28;20516;-64
2022/03/22 06:11:02;;;;;;;17.00;9.73;;;4.90;96.00;;;;;;5079686;28;20092;-64
2022/03/22 06:13:28;;;;;;;19.00;8.95;;;4.90;96.80;;;;;;5065086;28;20123;-64
2022/03/22 06:15:54;;;;;;;17.08;9.77;;;5.00;97.30;;;;;;5077822;28;20130;-64
2022/03/22 06:18:20;;;;;;;16.67;8.80;;;5.40;96.60;;;;;;5066053;28;20040;-65
2022/03/22 06:20:45;;;;;;;18.08;8.95;;;6.00;95.30;;;;;;5057013;28;20032;-65
2022/03/22 06:23:12;;;;;;;;;;;6.50;95.00;;;;;;5063745;28;20071;-66
2022/03/22 06:25:39;;;;;;;14.77;9.07;;;7.20;94.30;;;;;;5056060;28;19939;-65
2022/03/22 06:28:06;;;;;;;15.55;9.25;;;7.30;93.00;;;;;;5048664;28;20040;-65
2022/03/22 06:30:34;;;;;;;15.88;9.10;;;7.00;93.00;;;;;;5056457;28;20043;-65
2022/03/22 06:33:07;;;;;;;17.20;9.43;;;6.80;94.00;;;;;;5059767;28;20036;-66
2022/03/22 06:35:33;;;;;;;17.52;9.85;;;6.70;95.10;;;;;;5081246;28;20153;-64
2022/03/22 06:38:01;;;;;;;17.25;9.80;;;6.90;95.10;;;;;;5063912;28;20109;-65
2022/03/22 06:40:29;;;;;;;13.57;9.15;;;6.90;94.50;;;;;;5064206;28;20037;-65
2022/03/22 06:42:58;;;;;;;15.82;9.35;;;7.00;94.60;;;;;;5082736;28;20112;-65
2022/03/22 06:45:24;;;;;;;17.33;8.88;;;7.40;93.70;;;;;;5083470;28;20047;-66
2022/03/22 06:47:50;;;;;;;;;;;7.60;93.20;;;;;;5063666;28;20040;-66
2022/03/22 06:50:18;;;;;;;15.83;8.50;;;7.70;93.70;;;;;;5063323;28;19924;-67
2022/03/22 06:52:44;;;;;;;14.73;8.82;;;7.90;93.70;;;;;;5080944;28;20115;-66
2022/03/22 06:55:10;;;;;;;;;;;8.10;93.40;;;;;;5061471;28;20064;-65
2022/03/22 06:57:37;;;;;;;17.00;9.18;;;8.40;93.00;;;;;;5063732;28;19916;-67
2022/03/22 07:00:08;;;;;;;19.40;10.00;;;8.60;91.70;;;;;;5063024;28;20124;-67
2022/03/22 07:02:35;;;;;;;16.80;8.80;;;8.80;91.50;;;;;;5073988;28;20040;-65
2022/03/22 07:05:02;;;;;;;16.60;9.25;;;9.00;93.20;;;;;;5083468;28;20036;-66
2022/03/22 07:07:28;;;;;;;15.98;8.10;;;9.30;92.10;;;;;;5069115;28;20140;-64
2022/03/22 07:09:54;;;;;;;17.80;10.13;;;10.10;91.60;;;;;;5062285;28;20075;-67
2022/03/22 07:12:20;;;;;;;;;;;10.30;90.80;;;;;;5074621;28;20516;-65
2022/03/22 07:14:46;;;;;;;18.02;7.80;;;10.20;91.50;;;;;;5082641;28;19973;-65
2022/03/22 07:17:12;;;;;;;13.73;9.02;;;10.10;91.40;;;;;;5069621;28;20079;-67
2022/03/22 07:19:38;;;;;;;;;;;10.20;92.60;;;;;;5075464;28;20091;-66
2022/03/22 07:22:06;;;;;;;17.48;8.07;;;10.40;92.00;;;;;;5054393;28;20502;-65
2022/03/22 07:24:33;;;;;;;13.82;8.52;;;10.60;91.10;;;;;;5054187;28;20051;-65
2022/03/22 07:26:59;;;;;;;14.38;8.38;;;10.70;90.10;;;;;;5050193;28;20598;-64
2022/03/22 07:29:25;;;;;;;14.60;8.27;;;10.90;90.30;;;;;;5062306;28;20043;-65
2022/03/22 07:31:51;;;;;;;;;;;11.10;88.30;;;;;;5054342;28;20059;-64
2022/03/22 07:34:18;;;;;;;17.58;8.52;;;11.40;87.70;;;;;;5057261;28;19917;-65
2022/03/22 07:36:47;;;;;;;14.05;8.27;;;11.60;86.70;;;;;;5059988;28;20760;-65
2022/03/22 07:39:13;;;;;;;15.57;7.85;;;11.60;85.20;;;;;;5055938;28;20033;-65
2022/03/22 07:41:43;;;;;;;13.93;8.43;;;11.40;83.00;;;;;;5058834;28;20044;-65
2022/03/22 07:44:12;;;;;;;19.70;9.70;;;11.40;86.90;;;;;;5055676;28;20186;-64
2022/03/22 07:46:37;;;;;;;13.68;8.55;;;11.20;83.80;;;;;;5058194;28;20067;-65
2022/03/22 07:54:32;;;;;;;15.63;8.02;;;11.00;84.80;;;;;;5077441;28;20139;-64
2022/03/22 07:56:57;;;;;;;;;;;11.20;85.50;;;;;;5068534;28;20043;-64
2022/03/22 07:59:27;;;;;;;13.18;7.93;;;11.30;86.30;;;;;;5067093;28;19924;-64
2022/03/22 08:01:53;;;;;;;14.02;8.73;;;11.50;82.40;;;;;;5070935;28;20106;-65
2022/03/22 08:04:18;;;;;;;14.43;8.50;;;12.10;76.20;;;;;;5083431;28;20054;-65
2022/03/22 08:06:44;;;;;;;;;;;13.20;68.50;;;;;;5086473;28;20048;-65
2022/03/22 08:09:09;;;;;;;14.20;8.02;;;14.00;63.20;;;;;;5086178;28;19979;-65
2022/03/22 08:11:36;;;;;;;15.40;9.35;;;14.80;59.90;;;;;;5086036;28;20035;-65
2022/03/22 08:14:04;;;;;;;13.40;8.23;;;15.10;58.50;;;;;;5068329;28;20106;-64
2022/03/22 08:16:30;;;;;;;16.85;8.98;;;15.30;58.80;;;;;;5066056;28;20048;-65
2022/03/22 08:18:55;;;;;;;;;;;15.60;54.30;;;;;;5082189;28;20086;-65
2022/03/22 08:21:21;;;;;;;15.77;9.23;;;16.50;52.30;;;;;;5086173;28;19984;-65
2022/03/22 08:23:47;;;;;;;18.42;9.18;;;16.90;47.80;;;;;;5069250;28;20048;-66
2022/03/22 08:26:16;;;;;;;;;;;17.60;48.10;;;;;;5054444;28;20041;-66
2022/03/22 08:28:42;;;;;;;16.02;9.05;;;17.70;44.60;;;;;;5058176;28;19920;-65
2022/03/22 08:31:13;;;;;;;12.98;8.80;;;17.50;42.10;;;;;;5065182;28;20638;-65
2022/03/22 08:33:38;;;;;;;20.40;11.35;;;17.70;44.60;;;;;;5064774;28;20135;-64
2022/03/22 08:36:04;;;;;;;;;;;16.60;41.40;;;;;;5068407;28;20254;-65
2022/03/22 08:38:30;;;;;;;16.85;9.82;;;15.50;45.70;;;;;;5073323;28;20453;-65
2022/03/22 08:40:56;;;;;;;;;;;14.70;46.60;;;;;;5086416;28;20040;-65
2022/03/22 08:43:25;;;;;;;20.17;10.27;;;13.70;48.60;;;;;;5077022;28;20003;-65
2022/03/22 08:45:51;;;;;;;15.75;9.63;;;13.40;50.10;;;;;;5065316;28;20420;-65
2022/03/22 08:48:17;;;;;;;23.45;11.07;;;13.20;51.40;;;;;;5072073;28;20793;-65
2022/03/22 08:50:45;;;;;;;18.35;10.60;;;12.90;49.30;;;;;;5085347;28;20044;-64
2022/03/22 08:53:12;;;;;;;21.58;9.80;;;12.60;52.20;;;;;;5080201;28;20268;-65
2022/03/22 08:55:38;;;;;;;16.75;9.50;;;12.80;52.30;;;;;;5055036;28;20079;-65
2022/03/22 08:58:06;;;;;;;;;;;12.80;50.60;;;;;;5056308;28;20631;-64
2022/03/22 09:00:36;;;;;;;22.20;10.30;;;12.80;53.60;;;;;;5084215;28;19916;-66
2022/03/22 09:03:04;;;;;;;18.98;10.80;;;12.80;51.70;;;;;;5082159;28;20047;-66
2022/03/22 09:08:15;;;;;;;21.27;11.02;;;12.90;51.30;;;;;;5066317;28;20039;-66
2022/03/22 09:10:41;;;;;;;;;;;13.00;55.10;;;;;;5085723;28;20043;-66
2022/03/22 09:13:08;;;;;;;25.02;10.65;;;13.00;52.00;;;;;;5082520;28;19922;-66
2022/03/22 09:15:38;;;;;;;16.63;10.40;;;13.10;52.30;;;;;;5064943;28;20063;-66
2022/03/22 09:18:05;;;;;;;16.85;10.02;;;13.10;54.20;;;;;;5065796;28;20086;-66
2022/03/22 09:20:32;;;;;;;21.05;9.75;;;13.20;53.40;;;;;;5084737;28;20097;-66
2022/03/22 09:23:00;;;;;;;15.88;9.40;;;13.30;52.70;;;;;;5084562;28;20040;-66
2022/03/22 09:25:27;;;;;;;18.45;8.18;;;13.40;49.90;;;;;;5050843;28;20040;-66
2022/03/22 09:27:53;;;;;;;15.60;8.23;;;13.50;50.60;;;;;;5050446;28;20110;-66
2022/03/22 09:30:19;;;;;;;;;;;13.50;51.80;;;;;;5080251;28;20044;-66
2022/03/22 09:32:44;;;;;;;15.63;8.43;;;13.40;47.60;;;;;;5084605;28;20379;-66
2022/03/22 09:35:11;;;;;;;;;;;13.40;49.40;;;;;;5069690;28;20037;-66
2022/03/22 09:37:43;;;;;;;28.63;9.88;;;13.20;46.60;;;;;;5064743;28;20011;-66
2022/03/22 09:40:11;;;;;;;18.00;8.43;;;13.10;47.60;;;;;;5079407;28;20072;-66
2022/03/22 09:42:42;;;;;;;14.70;7.80;;;13.30;51.20;;;;;;5083944;28;20036;-66
2022/03/22 09:45:09;;;;;;;17.20;8.32;;;13.40;48.60;;;;;;5070361;28;20038;-66
2022/03/22 09:47:36;;;;;;;18.55;9.63;;;13.60;49.30;;;;;;5060937;28;20048;-66
2022/03/22 09:50:04;;;;;;;16.10;8.50;;;13.70;48.60;;;;;;5062591;28;20040;-66
2022/03/22 09:52:31;;;;;;;17.73;9.52;;;13.60;47.30;;;;;;5060601;28;20128;-64
2022/03/22 09:54:56;;;;;;;21.77;8.75;;;13.60;49.60;;;;;;5060883;28;20036;-65
2022/03/22 09:57:22;;;;;;;;;;;13.60;48.60;;;;;;5046367;28;20048;-64
2022/03/22 09:59:47;;;;;;;16.23;8.82;;;13.40;46.70;;;;;;5063197;28;19920;-65
2022/03/22 10:02:13;;;;;;;;;;;13.20;47.30;;;;;;5083644;28;20511;-64
2022/03/22 10:04:41;;;;;;;20.70;9.25;;;13.30;47.40;;;;;;5076585;28;19927;-64
2022/03/22 10:07:16;;;;;;;23.35;8.90;;;13.10;46.60;;;;;;5064321;28;20071;-64
2022/03/22 10:09:49;;;;;;;15.43;7.88;;;13.20;47.50;;;;;;5071200;28;20039;-64
2022/03/22 10:12:34;;;;;;;19.10;9.27;;;13.20;46.50;;;;;;5084285;28;20495;-63
2022/03/22 10:15:11;;;;;;;24.75;9.98;;;13.30;46.90;;;;;;5075665;28;20044;-64
2022/03/22 10:17:38;;;;;;;17.35;9.60;;;13.20;46.80;;;;;;5062771;28;20045;-64
2022/03/22 10:20:06;;;;;;;20.27;9.90;;;13.10;47.30;;;;;;5072741;28;20040;-63
2022/03/22 10:22:34;;;;;;;17.95;9.20;;;13.30;50.40;;;;;;5078394;28;20044;-64
2022/03/22 10:25:02;;;;;;;20.67;9.75;;;13.20;46.90;;;;;;5060086;28;20032;-64
2022/03/22 10:27:31;;;;;;;17.27;9.25;;;13.20;47.70;;;;;;5045439;28;20063;-64
2022/03/22 10:30:00;;;;;;;20.02;10.48;;;13.30;47.20;;;;;;5056768;28;20071;-63
2022/03/22 10:32:37;;;;;;;19.05;10.05;;;13.20;48.30;;;;;;5062759;28;20050;-65
2022/03/22 10:35:13;;;;;;;18.38;9.02;;;13.30;47.80;;;;;;5063578;28;20771;-63
2022/03/22 10:37:45;;;;;;;14.70;8.07;;;13.20;44.50;;;;;;5069981;28;20155;-66
2022/03/22 10:40:30;;;;;;;15.73;8.30;;;13.20;43.80;;;;;;5075171;28;20032;-65
2022/03/22 10:43:06;;;;;;;14.75;7.43;;;13.10;43.20;;;;;;5083325;28;20044;-65
2022/03/22 10:45:43;;;;;;;13.90;7.82;;;13.30;41.00;;;;;;5074837;28;20800;-65
2022/03/22 10:48:09;;;;;;;21.25;7.70;;;13.30;42.80;;;;;;5063954;28;20055;-66
2022/03/22 10:50:38;;;;;;;;;;;13.20;41.10;;;;;;5072914;28;20027;-66
2022/03/22 10:53:04;;;;;;;17.10;8.65;;;13.20;42.70;;;;;;5069740;28;19920;-66
2022/03/22 10:55:30;;;;;;;16.63;8.57;;;13.20;42.50;;;;;;5051164;28;20119;-66
2022/03/22 10:57:57;;;;;;;;;;;13.20;44.60;;;;;;5044205;28;20120;-65
2022/03/22 11:00:24;;;;;;;21.80;9.13;;;13.20;42.80;;;;;;5053989;28;19926;-66
2022/03/22 11:02:52;;;;;;;15.43;9.15;;;13.20;44.60;;;;;;5083455;28;20093;-66
2022/03/22 11:05:33;;;;;;;15.40;8.70;;;13.20;43.90;;;;;;5076669;28;20039;-65
2022/03/22 11:08:18;;;;;;;15.70;8.25;;;13.30;43.80;;;;;;5062738;28;20131;-66
2022/03/22 11:10:45;;;;;;;18.60;9.45;;;13.50;46.40;;;;;;5070456;28;20044;-65
2022/03/22 11:13:10;;;;;;;16.00;10.15;;;13.80;44.60;;;;;;5082780;28;20043;-65
2022/03/22 11:15:37;;;;;;;;;;;13.90;42.10;;;;;;5078662;28;20040;-65
2022/03/22 11:18:05;;;;;;;13.98;9.25;;;14.10;43.20;;;;;;5065697;28;20340;-64
2022/03/22 11:20:31;;;;;;;18.02;9.98;;;14.20;44.40;;;;;;5067143;28;20141;-65
2022/03/22 11:22:57;;;;;;;;;;;14.30;44.60;;;;;;5070884;28;20488;-65
2022/03/22 11:25:34;;;;;;;12.35;7.95;;;14.10;42.00;;;;;;5054884;28;20015;-64
2022/03/22 11:28:08;;;;;;;13.60;7.40;;;14.20;41.80;;;;;;5056928;28;20036;-65
2022/03/22 11:30:36;;;;;;;19.95;8.63;;;14.30;42.10;;;;;;5066880;28;21331;-65
2022/03/22 11:35:49;;;;;;;11.20;7.18;;;14.10;38.70;;;;;;5063530;28;20608;-64
2022/03/22 11:38:44;;;;;;;15.75;8.48;;;14.00;39.40;;;;;;5063244;28;20820;-65
2022/03/22 11:44:19;;;;;;;11.45;6.57;;;13.90;37.10;;;;;;5082702;28;20955;-64
2022/03/22 11:46:47;;;;;;;13.32;7.28;;;14.00;38.10;;;;;;5067331;28;20048;-64
2022/03/22 11:49:20;;;;;;;12.10;7.88;;;14.40;42.00;;;;;;5062578;28;20044;-64
2022/03/22 11:52:14;;;;;;;17.65;9.23;;;14.50;42.90;;;;;;5072436;28;20047;-65
2022/03/22 11:54:52;;;;;;;14.60;9.07;;;14.50;44.00;;;;;;5050943;28;20627;-66
2022/03/22 11:57:17;;;;;;;15.45;9.60;;;14.20;42.70;;;;;;5064955;28;20055;-63
2022/03/22 11:59:46;;;;;;;;;;;14.20;44.00;;;;;;5063165;28;20036;-64
2022/03/22 12:02:17;;;;;;;15.05;9.63;;;14.30;47.20;;;;;;5061293;28;19916;-64
2022/03/22 12:04:51;;;;;;;20.67;9.95;;;14.40;48.00;;;;;;5062947;28;20041;-65
2022/03/22 12:07:22;;;;;;;16.75;10.05;;;14.50;45.50;;;;;;5074941;28;20046;-64
2022/03/22 12:09:48;;;;;;;17.48;9.55;;;14.40;43.60;;;;;;5082384;28;20588;-64
2022/03/22 12:12:14;;;;;;;;;;;14.40;45.20;;;;;;5071517;28;20032;-64
2022/03/22 12:14:43;;;;;;;20.17;10.02;;;14.30;44.60;;;;;;5065209;28;19964;-65
2022/03/22 12:17:08;;;;;;;19.77;11.15;;;14.20;45.20;;;;;;5075509;28;20237;-63
2022/03/22 12:19:35;;;;;;;;;;;14.20;45.20;;;;;;5087177;28;20116;-63
2022/03/22 12:22:02;;;;;;;13.18;8.48;;;14.20;45.20;;;;;;5075707;28;20440;-63
2022/03/22 12:24:33;;;;;;;14.38;8.13;;;14.50;42.60;;;;;;5057885;28;20051;-63
2022/03/22 12:27:01;;;;;;;15.48;8.27;;;14.60;40.40;;;;;;5055331;28;20040;-64
2022/03/22 12:29:26;;;;;;;12.18;7.88;;;14.70;42.20;;;;;;5063417;28;20047;-63
2022/03/22 12:31:54;;;;;;;;;;;14.90;41.80;;;;;;5070645;28;20036;-63
2022/03/22 12:34:24;;;;;;;17.98;10.13;;;14.90;41.50;;;;;;5085975;28;20338;-63
2022/03/22 12:36:50;;;;;;;19.92;9.90;;;14.90;42.30;;;;;;5081432;28;20572;-63
2022/03/22 12:39:15;;;;;;;;;;;14.90;44.40;;;;;;5068043;28;20119;-66
2022/03/22 12:41:43;;;;;;;19.58;10.90;;;15.00;45.10;;;;;;5070195;28;20299;-64
2022/03/22 12:44:09;;;;;;;16.35;9.90;;;15.00;43.70;;;;;;5061155;28;20079;-64
2022/03/22 12:46:35;;;;;;;;;;;15.00;42.90;;;;;;5071085;28;20067;-64
2022/03/22 12:49:03;;;;;;;19.17;10.48;;;14.90;44.10;;;;;;5073326;28;19922;-64
2022/03/22 12:51:31;;;;;;;17.15;11.32;;;15.00;45.60;;;;;;5074548;28;20076;-64
2022/03/22 12:54:01;;;;;;;19.23;9.98;;;15.00;43.60;;;;;;5069073;28;20065;-65
2022/03/22 12:56:26;;;;;;;17.38;10.98;;;15.10;44.10;;;;;;5056390;28;20037;-64
2022/03/22 12:58:52;;;;;;;;;;;15.20;43.90;;;;;;5082994;28;20530;-66
2022/03/22 13:01:18;;;;;;;20.17;10.75;;;15.10;44.10;;;;;;5084676;28;19924;-64
2022/03/22 13:03:44;;;;;;;;;;;15.20;43.00;;;;;;5072128;28;20031;-65
2022/03/22 13:06:10;;;;;;;18.55;10.23;;;15.20;46.30;;;;;;5074954;28;19920;-65
2022/03/22 13:11:32;;;;;;;18.67;11.35;;;15.30;44.90;;;;;;5034172;28;20045;-65
2022/03/22 13:16:53;;;;;;;17.05;10.15;;;15.30;43.70;;;;;;5065281;28;20045;-65
2022/03/22 13:19:19;;;;;;;21.00;11.68;;;15.40;45.70;;;;;;5073244;28;20496;-65
2022/03/22 13:21:45;;;;;;;;;;;15.40;44.30;;;;;;5082338;28;20074;-66
2022/03/22 13:24:17;;;;;;;19.63;10.90;;;15.40;46.10;;;;;;5060245;28;20018;-65
2022/03/22 13:27:02;;;;;;;22.52;11.70;;;15.40;45.10;;;;;;5057006;28;20090;-65
2022/03/22 13:29:38;;;;;;;19.15;10.88;;;15.40;45.40;;;;;;5074691;28;20519;-65
2022/03/22 13:32:12;;;;;;;19.20;11.13;;;15.30;45.40;;;;;;5063499;28;20544;-65